Time;durP1;ratioP1;P1;durP2;ratioP2;P2;SDS_P1;SDS_P2;PMS_P1;PMS_P2;Temp;Humidity;BMP_temperature;BMP_pressure;BME280_temperature;BME280_humidity;BME280_pressure;Samples;Min_cycle;Max_cycle;Signal;HPM_P1;HPM_P2
2023/01/17 00:17:38;;;;;;;2.35;0.93;;;;;;;;;;21003682;28;20052;-61
2023/01/17 01:39:30;;;;;;;1.98;0.55;;;;;;;;;;21000848;28;20389;-58
2023/01/17 01:49:32;;;;;;;2.03;0.90;;;;;;;;;;21000883;28;20057;-58
2023/01/17 01:59:34;;;;;;;2.58;0.52;;;;;;;;;;21008733;28;20088;-57
2023/01/17 02:09:37;;;;;;;2.03;0.75;;;;;;;;;;20984647;28;20123;-57
2023/01/17 02:20:11;;;;;;;0.95;0.52;;;;;;;;;;20997478;28;20056;-58
2023/01/17 02:30:36;;;;;;;1.25;0.57;;;;;;;;;;20661051;28;20089;-57
2023/01/17 02:40:47;;;;;;;1.50;0.73;;;;;;;;;;20419926;29;20063;-57
2023/01/17 02:51:03;;;;;;;1.58;0.70;;;;;;;;;;20420601;29;20111;-57
2023/01/17 03:01:08;;;;;;;1.60;0.60;;;;;;;;;;20518337;28;20093;-58
2023/01/17 03:11:11;;;;;;;1.60;0.90;;;;;;;;;;20739225;28;20044;-56
2023/01/17 03:21:20;;;;;;;4.63;0.80;;;;;;;;;;20995071;28;20106;-60
2023/01/17 03:31:35;;;;;;;2.42;0.63;;;;;;;;;;20994498;28;20048;-60
2023/01/17 03:41:43;;;;;;;1.70;0.50;;;;;;;;;;20994032;28;20061;-59
2023/01/17 03:51:57;;;;;;;2.25;0.60;;;;;;;;;;20989965;28;20056;-61
2023/01/17 04:01:59;;;;;;;1.58;0.50;;;;;;;;;;21009596;28;20051;-61
2023/01/17 04:12:01;;;;;;;1.85;0.60;;;;;;;;;;21008912;28;20072;-62
2023/01/17 04:22:05;;;;;;;1.73;0.45;;;;;;;;;;21007899;28;20109;-60
2023/01/17 04:32:28;;;;;;;2.05;0.50;;;;;;;;;;21006802;28;20068;-60
2023/01/17 04:42:29;;;;;;;1.45;0.68;;;;;;;;;;21005721;28;20067;-62
2023/01/17 04:52:50;;;;;;;2.40;0.70;;;;;;;;;;21005858;28;20060;-61
2023/01/17 05:02:56;;;;;;;1.00;0.50;;;;;;;;;;21003714;28;20056;-62
2023/01/17 05:12:59;;;;;;;1.20;0.85;;;;;;;;;;21003749;28;20484;-62
2023/01/17 05:23:03;;;;;;;2.80;1.40;;;;;;;;;;20984968;28;20045;-61
2023/01/17 05:33:08;;;;;;;1.10;0.40;;;;;;;;;;21002310;28;20045;-62
2023/01/17 05:43:10;;;;;;;1.02;0.60;;;;;;;;;;21000809;28;20044;-60
2023/01/17 05:53:15;;;;;;;0.90;0.57;;;;;;;;;;21000531;28;20503;-60
2023/01/17 06:03:17;;;;;;;1.20;0.70;;;;;;;;;;20999708;28;20051;-60
2023/01/17 06:13:20;;;;;;;1.20;0.57;;;;;;;;;;20980529;28;20480;-61
2023/01/17 06:23:23;;;;;;;1.75;0.77;;;;;;;;;;20997428;28;20048;-60
2023/01/17 06:33:25;;;;;;;0.85;0.55;;;;;;;;;;20979433;28;20048;-60
2023/01/17 06:43:32;;;;;;;0.80;0.40;;;;;;;;;;20995932;28;20044;-62
2023/01/17 06:53:35;;;;;;;2.83;0.82;;;;;;;;;;20995939;28;20098;-59
2023/01/17 07:03:37;;;;;;;1.80;0.60;;;;;;;;;;20996799;28;20488;-58
2023/01/17 07:13:39;;;;;;;1.25;0.70;;;;;;;;;;20995384;28;20143;-61
2023/01/17 07:23:42;;;;;;;1.90;0.60;;;;;;;;;;21002436;28;20165;-61
2023/01/17 07:33:44;;;;;;;1.20;0.75;;;;;;;;;;21010414;28;20062;-58
2023/01/17 07:43:46;;;;;;;5.32;1.40;;;;;;;;;;21009859;28;20135;-60
2023/01/17 07:53:48;;;;;;;7.60;1.90;;;;;;;;;;21009179;28;20059;-62
2023/01/17 08:03:53;;;;;;;6.70;1.70;;;;;;;;;;21007935;28;20087;-61
2023/01/17 08:13:58;;;;;;;3.65;1.50;;;;;;;;;;21007925;28;20109;-62
2023/01/17 08:24:01;;;;;;;9.57;1.77;;;;;;;;;;21006840;28;20049;-62
2023/01/17 08:34:03;;;;;;;6.53;1.45;;;;;;;;;;21005574;28;20430;-58
2023/01/17 08:44:05;;;;;;;5.45;1.48;;;;;;;;;;21006119;28;20140;-56
2023/01/17 08:54:08;;;;;;;4.18;1.40;;;;;;;;;;21004829;28;20140;-56
2023/01/17 09:04:10;;;;;;;5.50;1.05;;;;;;;;;;20985588;28;20056;-57
2023/01/17 09:14:14;;;;;;;3.53;1.00;;;;;;;;;;21002794;28;20127;-58
2023/01/17 09:24:16;;;;;;;3.70;0.80;;;;;;;;;;21001188;28;20049;-57
2023/01/17 09:34:19;;;;;;;4.40;0.98;;;;;;;;;;21001233;28;20090;-57
2023/01/17 09:44:24;;;;;;;5.65;1.80;;;;;;;;;;20982702;28;20424;-59
2023/01/17 09:54:30;;;;;;;6.88;1.70;;;;;;;;;;20999366;28;20048;-58
2023/01/17 10:04:43;;;;;;;5.53;2.40;;;;;;;;;;20998143;28;20048;-57
2023/01/17 10:14:45;;;;;;;10.07;1.60;;;;;;;;;;20998489;28;20086;-58
2023/01/17 10:24:56;;;;;;;5.68;1.70;;;;;;;;;;20996640;28;20131;-59
2023/01/17 10:35:01;;;;;;;6.38;2.35;;;;;;;;;;20995926;28;20079;-57
2023/01/17 10:45:12;;;;;;;6.40;2.07;;;;;;;;;;20996344;28;20484;-62
2023/01/17 10:55:17;;;;;;;4.63;1.63;;;;;;;;;;20969925;28;20056;-61
2023/01/17 11:05:23;;;;;;;6.82;1.85;;;;;;;;;;20995090;28;20052;-58
2023/01/17 11:15:26;;;;;;;5.78;1.83;;;;;;;;;;20947834;28;20049;-61
2023/01/17 11:25:32;;;;;;;10.40;2.40;;;;;;;;;;20912614;28;20469;-57
2023/01/17 11:35:35;;;;;;;5.90;1.40;;;;;;;;;;20910827;28;20106;-61
2023/01/17 11:45:40;;;;;;;8.82;1.65;;;;;;;;;;20911458;28;20503;-60
2023/01/17 11:55:53;;;;;;;8.88;2.58;;;;;;;;;;20892701;28;20045;-63
2023/01/17 12:06:10;;;;;;;6.63;1.48;;;;;;;;;;20892612;28;20049;-58
2023/01/17 12:16:31;;;;;;;7.60;3.75;;;;;;;;;;20963045;28;20071;-60
2023/01/17 12:26:42;;;;;;;7.00;1.55;;;;;;;;;;21006783;28;20053;-59
2023/01/17 12:36:47;;;;;;;5.28;1.50;;;;;;;;;;21004785;28;20087;-58
2023/01/17 12:47:00;;;;;;;4.70;1.40;;;;;;;;;;21004814;28;20143;-58
2023/01/17 12:57:12;;;;;;;3.55;1.30;;;;;;;;;;21004089;28;20309;-59
2023/01/17 13:07:33;;;;;;;2.97;0.82;;;;;;;;;;21004698;28;20131;-61
2023/01/17 13:17:52;;;;;;;4.07;1.98;;;;;;;;;;21002319;28;20265;-61
2023/01/17 13:28:00;;;;;;;5.90;1.02;;;;;;;;;;21002492;28;20456;-60
2023/01/17 13:38:05;;;;;;;9.80;6.15;;;;;;;;;;21000833;28;20515;-61
2023/01/17 13:48:24;;;;;;;4.15;1.58;;;;;;;;;;21000235;28;20044;-58
2023/01/17 13:58:30;;;;;;;2.20;1.10;;;;;;;;;;20999336;28;20052;-61
2023/01/17 14:08:37;;;;;;;3.35;1.25;;;;;;;;;;20981437;28;20068;-59
2023/01/17 14:18:40;;;;;;;4.15;1.92;;;;;;;;;;20980234;28;20075;-58
2023/01/17 14:28:42;;;;;;;2.78;0.95;;;;;;;;;;20996811;28;20075;-60
2023/01/17 14:38:44;;;;;;;5.65;1.20;;;;;;;;;;20996609;28;20093;-58
2023/01/17 14:48:46;;;;;;;3.17;1.05;;;;;;;;;;20996449;28;20040;-58
2023/01/17 14:58:50;;;;;;;3.42;1.50;;;;;;;;;;20995636;28;20048;-58
2023/01/17 15:08:52;;;;;;;3.63;0.95;;;;;;;;;;20994797;28;20079;-58
2023/01/17 15:18:56;;;;;;;1.20;0.70;;;;;;;;;;20991102;28;20052;-60
2023/01/17 15:29:10;;;;;;;1.48;0.80;;;;;;;;;;20989920;28;20408;-65
2023/01/17 15:39:23;;;;;;;1.53;0.67;;;;;;;;;;20990740;28;20063;-63
2023/01/17 15:49:25;;;;;;;0.75;0.52;;;;;;;;;;21006916;28;20430;-62
2023/01/17 15:59:27;;;;;;;4.57;1.05;;;;;;;;;;21006766;28;20067;-64
2023/01/17 16:09:40;;;;;;;5.20;1.77;;;;;;;;;;21006358;28;20048;-63
2023/01/17 16:19:42;;;;;;;2.42;0.68;;;;;;;;;;21004114;28;20086;-60
2023/01/17 16:29:45;;;;;;;2.17;0.80;;;;;;;;;;21003093;28;20051;-60
2023/01/17 16:39:47;;;;;;;1.85;0.90;;;;;;;;;;21003159;28;20056;-66
2023/01/17 16:49:49;;;;;;;6.43;2.97;;;;;;;;;;21002025;28;20048;-64
2023/01/17 16:59:52;;;;;;;2.95;1.58;;;;;;;;;;21000528;28;20049;-59
2023/01/17 17:09:54;;;;;;;4.50;1.05;;;;;;;;;;21001367;28;20049;-64
2023/01/17 17:19:56;;;;;;;2.08;0.65;;;;;;;;;;20999703;28;20055;-61
2023/01/17 17:29:58;;;;;;;2.80;1.40;;;;;;;;;;20980092;28;20049;-64
2023/01/17 17:40:00;;;;;;;2.92;1.20;;;;;;;;;;20997849;28;20566;-66
2023/01/17 17:50:02;;;;;;;3.90;1.33;;;;;;;;;;20997795;28;20051;-61
2023/01/17 18:00:05;;;;;;;2.67;0.70;;;;;;;;;;20999144;28;20052;-58
2023/01/17 18:10:07;;;;;;;2.60;0.85;;;;;;;;;;20998789;28;20040;-61
2023/01/17 18:20:10;;;;;;;7.75;4.85;;;;;;;;;;20998531;28;20076;-62
2023/01/17 18:30:12;;;;;;;3.80;1.98;;;;;;;;;;20981296;28;20400;-62
2023/01/17 18:40:14;;;;;;;3.60;0.80;;;;;;;;;;20998810;28;20417;-60
2023/01/17 18:50:16;;;;;;;4.63;1.20;;;;;;;;;;20997343;28;20055;-63
2023/01/17 19:00:18;;;;;;;3.10;1.13;;;;;;;;;;20996659;28;20060;-61
2023/01/17 19:10:20;;;;;;;5.13;0.98;;;;;;;;;;20996230;28;20169;-62
2023/01/17 19:20:22;;;;;;;2.83;1.15;;;;;;;;;;21003742;28;20056;-62
2023/01/17 19:30:24;;;;;;;1.98;1.02;;;;;;;;;;21011709;28;20055;-61
2023/01/17 19:40:26;;;;;;;2.53;1.00;;;;;;;;;;21011834;28;20065;-60
2023/01/17 19:50:28;;;;;;;5.20;2.35;;;;;;;;;;21011392;28;20070;-63
2023/01/17 20:00:34;;;;;;;2.13;1.00;;;;;;;;;;21009352;28;20135;-62
2023/01/17 20:10:36;;;;;;;2.30;1.20;;;;;;;;;;21009375;28;20074;-67
2023/01/17 20:20:40;;;;;;;3.42;0.98;;;;;;;;;;21008888;28;20511;-60
2023/01/17 20:30:44;;;;;;;10.85;5.25;;;;;;;;;;21011309;28;20052;-60
2023/01/17 20:40:54;;;;;;;2.03;1.48;;;;;;;;;;21008870;28;20069;-61
2023/01/17 20:51:01;;;;;;;4.40;2.45;;;;;;;;;;21007669;28;20128;-60
2023/01/17 21:01:03;;;;;;;1.98;1.13;;;;;;;;;;21010010;28;20060;-61
2023/01/17 21:11:07;;;;;;;3.30;1.67;;;;;;;;;;21010484;28;20080;-59
2023/01/17 21:21:11;;;;;;;3.20;2.17;;;;;;;;;;21008375;28;20071;-59
2023/01/17 21:31:23;;;;;;;1.13;0.80;;;;;;;;;;21005163;28;20048;-59
2023/01/17 21:41:27;;;;;;;2.53;1.20;;;;;;;;;;21002844;28;20064;-61
2023/01/17 22:02:09;;;;;;;2.60;1.02;;;;;;;;;;20750913;28;20053;-62
2023/01/17 22:12:10;;;;;;;3.03;1.50;;;;;;;;;;20754219;28;20061;-62
2023/01/17 22:22:12;;;;;;;4.43;1.35;;;;;;;;;;20751719;28;20380;-62
2023/01/17 22:32:14;;;;;;;3.67;2.30;;;;;;;;;;20881017;28;20087;-64
2023/01/17 22:42:15;;;;;;;6.70;3.15;;;;;;;;;;21003714;28;20428;-60
2023/01/17 22:52:17;;;;;;;6.70;2.78;;;;;;;;;;21005765;28;20045;-60
2023/01/17 23:02:19;;;;;;;4.82;1.98;;;;;;;;;;21002639;28;20413;-60
2023/01/17 23:12:20;;;;;;;2.58;0.90;;;;;;;;;;21004366;28;20052;-60
2023/01/17 23:22:25;;;;;;;2.88;1.30;;;;;;;;;;21000623;28;20462;-65
2023/01/17 23:32:27;;;;;;;3.87;0.87;;;;;;;;;;21002161;28;20048;-62
2023/01/17 23:52:49;;;;;;;5.80;2.40;;;;;;;;;;21006728;28;20451;-65
